createdAt,value
2022-10-02T00:07:37.360Z,99539.25
2022-10-02T00:18:24.603Z,99540.41
2022-10-02T00:29:15.096Z,99546.47
2022-10-02T00:40:10.919Z,99548.77
2022-10-02T00:51:13.084Z,99551.33
2022-10-02T01:01:48.967Z,99556.81
2022-10-02T01:12:10.569Z,99557.29
2022-10-02T01:22:38.675Z,99563.30
2022-10-02T01:33:03.131Z,99569.30
2022-10-02T01:43:54.844Z,99574.81
2022-10-02T01:55:01.095Z,99583.88
2022-10-02T02:05:27.206Z,99593.35
2022-10-02T02:16:12.818Z,99607.22
2022-10-02T02:26:20.025Z,99614.78
2022-10-02T02:36:51.718Z,99621.33
2022-10-02T02:47:22.667Z,99627.27
2022-10-02T02:57:47.193Z,99627.15
2022-10-02T03:08:56.345Z,99626.11
2022-10-02T03:19:46.859Z,99639.30
2022-10-02T03:30:00.477Z,99646.76
2022-10-02T03:40:13.073Z,99649.56
2022-10-02T03:50:52.324Z,99649.45
2022-10-02T04:01:20.935Z,99653.77
2022-10-02T04:11:51.994Z,99651.58
2022-10-02T04:22:24.081Z,99658.71
2022-10-02T04:33:21.150Z,99667.19
2022-10-02T04:43:36.588Z,99667.23
2022-10-02T04:54:11.770Z,99672.81
2022-10-02T05:05:14.631Z,99677.64
2022-10-02T05:15:59.869Z,99685.56
2022-10-02T05:26:35.440Z,99697.30
2022-10-02T05:37:47.354Z,99697.66
2022-10-02T05:48:13.643Z,99708.22
2022-10-02T05:58:50.904Z,99720.16
2022-10-02T06:10:07.187Z,99725.47
2022-10-02T06:20:27.024Z,99725.53
2022-10-02T06:30:57.107Z,99734.23
2022-10-02T06:41:28.676Z,99740.54
2022-10-02T06:52:07.880Z,99749.48
2022-10-02T07:03:01.910Z,99756.18
2022-10-02T07:13:42.128Z,99769.36
2022-10-02T07:24:22.688Z,99783.80
2022-10-02T07:35:15.800Z,99788.94
2022-10-02T07:45:45.872Z,99795.85
2022-10-02T07:56:20.858Z,99801.34
2022-10-02T08:06:58.386Z,99804.67
2022-10-02T08:17:34.505Z,99815.34
2022-10-02T08:28:52.898Z,99816.86
2022-10-02T08:40:14.847Z,99813.92
2022-10-02T08:51:10.838Z,99823.98
2022-10-02T09:02:37.733Z,99825.09
2022-10-02T09:13:13.010Z,99818.25
2022-10-02T09:23:49.123Z,99817.06
2022-10-02T09:34:22.921Z,99816.63
2022-10-02T09:45:10.050Z,99812.13
2022-10-02T09:55:57.341Z,99800.62
2022-10-02T10:07:19.670Z,99794.20
2022-10-02T10:18:41.793Z,99802.37
2022-10-02T10:29:37.024Z,99791.80
2022-10-02T10:40:10.925Z,99786.96
2022-10-02T10:50:35.965Z,99795.75
2022-10-02T11:01:15.683Z,99805.33
2022-10-02T11:11:27.989Z,99797.84
2022-10-02T11:21:48.402Z,99787.25
2022-10-02T11:32:54.550Z,99779.25
2022-10-02T11:43:51.906Z,99780.97
2022-10-02T11:54:30.817Z,99780.56
2022-10-02T12:05:07.455Z,99780.02
2022-10-02T12:15:36.218Z,99787.73
2022-10-02T12:27:19.178Z,99783.08
2022-10-02T12:38:10.773Z,99773.27
2022-10-02T12:48:51.617Z,99771.58
2022-10-02T12:59:21.486Z,99759.95
2022-10-02T13:09:48.542Z,99763.84
2022-10-02T13:20:22.392Z,99754.09
2022-10-02T13:30:35.859Z,99747.84
2022-10-02T13:40:53.820Z,99743.67
2022-10-02T13:51:57.884Z,99745.71
2022-10-02T14:02:10.606Z,99748.33
2022-10-02T14:12:38.951Z,99742.06
2022-10-02T14:23:08.548Z,99736.29
2022-10-02T14:33:45.866Z,99733.86
2022-10-02T14:44:12.126Z,99729.13
2022-10-02T14:54:48.587Z,99725.30
2022-10-02T15:05:24.090Z,99726.73
2022-10-02T15:16:15.251Z,99732.77
2022-10-02T15:26:47.881Z,99721.11
2022-10-02T15:37:25.569Z,99730.52
2022-10-02T15:48:09.163Z,99735.23
2022-10-02T15:58:53.474Z,99740.13
2022-10-02T16:09:20.092Z,99737.42
2022-10-02T16:20:54.735Z,99736.48
2022-10-02T16:31:23.109Z,99742.70
2022-10-02T16:42:05.400Z,99743.35
2022-10-02T16:52:42.214Z,99743.73
2022-10-02T17:03:43.074Z,99734.55
2022-10-02T17:14:36.705Z,99734.47
2022-10-02T17:25:31.650Z,99736.05
2022-10-02T17:36:02.250Z,99739.90
2022-10-02T17:46:50.197Z,99734.61
2022-10-02T17:57:24.877Z,99727.11
2022-10-02T18:08:10.160Z,99723.34
2022-10-02T18:32:11.009Z,99715.51
2022-10-02T18:42:41.153Z,99716.90
2022-10-02T18:53:31.809Z,99715.21
2022-10-02T19:04:06.705Z,99710.02
2022-10-02T19:14:50.963Z,99712.67
2022-10-02T19:25:12.049Z,99705.96
2022-10-02T19:35:46.583Z,99723.25
2022-10-02T19:45:57.226Z,99720.20
2022-10-02T19:56:27.263Z,99722.98
2022-10-02T20:06:53.559Z,99721.52
2022-10-02T20:17:18.171Z,99720.56
2022-10-02T20:28:22.805Z,99725.54
2022-10-02T20:39:18.937Z,99718.33
2022-10-02T20:50:33.298Z,99711.89
2022-10-02T21:01:21.087Z,99714.47
2022-10-02T21:12:43.443Z,99711.52
2022-10-02T21:23:55.151Z,99711.73
2022-10-02T21:34:53.911Z,99715.05
2022-10-02T21:46:02.380Z,99708.92
2022-10-02T21:56:39.734Z,99703.48
2022-10-02T22:07:58.415Z,99709.95
2022-10-02T22:18:56.046Z,99704.48
2022-10-02T22:29:29.734Z,99707.02
2022-10-02T22:39:42.830Z,99708.07
2022-10-02T22:50:20.300Z,99704.64
2022-10-02T23:01:16.635Z,99707.93
2022-10-02T23:12:15.520Z,99709.27
2022-10-02T23:22:55.744Z,99705.39
2022-10-02T23:33:42.786Z,99710.29
2022-10-02T23:44:59.639Z,99711.94
2022-10-02T23:55:45.660Z,99718.77
